Mantgum, Netherlands
Current Conditions -  °F | °C
As of 1:05 AM on Tuesday 21 Oct 2014 (Local Time) from EHLW Reporting Station
Overcast Overcast  
Wind Chill: 54°   Ceiling: 8500
Heat Index: 54°   Visibility: 6mi
Dew Point: 52°   Wind: 5mph
Humidity: 94%   Direction: 230°SW
Pressure: 29.8"   Gusts: NA
Location:  53.13°N, 5.72°E
Report Text: EHLW 202305Z AUTO 23004KT 9999 FEW020 OVC085 12/11 Q1009 BLU
Loading
Personal Weather Stations






























Interactive Weather Map
Tropical Storm Tracking
New forecast layout! Learn more

10-Day Weather Forecast

Advertisements
Track Severe Weather on mobile